Time;durP1;ratioP1;P1;durP2;ratioP2;P2;SDS_P1;SDS_P2;PMS_P1;PMS_P2;Temp;Humidity;BMP_temperature;BMP_pressure;BME280_temperature;BME280_humidity;BME280_pressure;Samples;Min_cycle;Max_cycle;Signal;HPM_P1;HPM_P2
2021/05/12 00:00:43;;;;;;;19.38;16.85;;;15.70;99.90;;;;;;2056006;28;20109;-68
2021/05/12 00:01:43;;;;;;;21.75;19.58;;;15.60;99.90;;;;;;2056389;28;20027;-68
2021/05/12 00:02:44;;;;;;;16.55;15.07;;;15.60;99.90;;;;;;2055535;28;20027;-68
2021/05/12 00:03:44;;;;;;;18.15;16.35;;;15.70;99.90;;;;;;2055827;28;20495;-68
2021/05/12 00:04:45;;;;;;;18.23;15.13;;;15.60;99.90;;;;;;2055903;28;20025;-68
2021/05/12 00:05:45;;;;;;;19.00;17.20;;;15.60;99.90;;;;;;2055570;28;20037;-68
2021/05/12 00:06:46;;;;;;;21.58;19.48;;;15.60;99.90;;;;;;2055347;28;20055;-68
2021/05/12 00:07:47;;;;;;;20.48;18.40;;;15.60;99.90;;;;;;2055178;28;20038;-68
2021/05/12 00:08:47;;;;;;;23.35;20.88;;;15.60;99.90;;;;;;2055743;28;20054;-68
2021/05/12 00:09:48;;;;;;;22.67;20.48;;;15.60;99.90;;;;;;2055483;28;20077;-68
2021/05/12 00:10:48;;;;;;;23.48;20.23;;;15.60;99.90;;;;;;2055166;28;20106;-68
2021/05/12 00:11:49;;;;;;;23.08;20.60;;;15.60;99.90;;;;;;2063771;28;20035;-68
2021/05/12 00:12:51;;;;;;;21.45;19.20;;;15.60;99.90;;;;;;2055358;28;20374;-68
2021/05/12 00:13:52;;;;;;;18.25;16.45;;;15.60;99.90;;;;;;2055631;28;20492;-68
2021/05/12 00:14:52;;;;;;;21.92;19.85;;;15.60;99.90;;;;;;2052484;28;20395;-68
2021/05/12 00:15:53;;;;;;;17.52;15.75;;;15.60;99.90;;;;;;2049926;28;20418;-68
2021/05/12 00:16:54;;;;;;;22.20;20.10;;;15.60;99.90;;;;;;2056040;28;20077;-68
2021/05/12 00:17:54;;;;;;;21.95;19.80;;;15.60;99.90;;;;;;2056036;28;20069;-68
2021/05/12 00:18:55;;;;;;;21.77;19.58;;;15.60;99.90;;;;;;2056040;28;20422;-68
2021/05/12 00:19:58;;;;;;;22.15;19.92;;;15.50;99.90;;;;;;2056120;28;20108;-68
2021/05/12 00:20:58;;;;;;;23.13;20.77;;;15.50;99.90;;;;;;2056097;28;20041;-68
2021/05/12 00:23:11;;;;;;;24.75;20.95;;;15.60;99.90;;;;;;2054248;28;20491;-68
2021/05/12 00:24:11;;;;;;;24.17;21.85;;;15.50;99.90;;;;;;2051362;28;20513;-68
2021/05/12 00:25:13;;;;;;;24.08;21.73;;;15.50;99.90;;;;;;2052798;28;20023;-68
2021/05/12 00:26:13;;;;;;;24.63;22.23;;;15.50;99.90;;;;;;2054784;28;20498;-68
2021/05/12 00:27:14;;;;;;;25.27;22.67;;;15.50;99.90;;;;;;2055884;28;20082;-68
2021/05/12 00:28:15;;;;;;;24.88;22.67;;;15.50;99.90;;;;;;2055258;28;20045;-68
2021/05/12 00:29:17;;;;;;;24.48;22.05;;;15.50;99.90;;;;;;2054805;28;21524;-68
2021/05/12 00:30:20;;;;;;;24.98;22.48;;;15.50;99.90;;;;;;2055781;28;20038;-68
2021/05/12 00:31:21;;;;;;;22.92;20.63;;;15.50;99.90;;;;;;2055873;28;20102;-68
2021/05/12 00:32:21;;;;;;;24.30;22.05;;;15.50;99.90;;;;;;2054472;28;20031;-68
2021/05/12 00:33:22;;;;;;;25.38;22.88;;;15.50;99.90;;;;;;2055955;28;20046;-68
2021/05/12 00:34:22;;;;;;;24.98;22.30;;;15.50;99.90;;;;;;2055441;28;20030;-68
2021/05/12 00:35:23;;;;;;;18.90;17.15;;;15.50;99.90;;;;;;2057939;28;20030;-68
2021/05/12 00:36:24;;;;;;;24.98;22.42;;;15.50;99.90;;;;;;2055789;28;20026;-68
2021/05/12 00:37:24;;;;;;;24.58;21.98;;;15.50;99.90;;;;;;2055733;28;20095;-68
2021/05/12 00:38:25;;;;;;;27.58;24.27;;;15.50;99.90;;;;;;2055729;28;20398;-68
2021/05/12 00:39:26;;;;;;;25.45;22.83;;;15.50;99.90;;;;;;2056197;28;20034;-68
2021/05/12 00:40:26;;;;;;;26.92;24.10;;;15.40;99.90;;;;;;2055893;28;20034;-68
2021/05/12 00:41:27;;;;;;;28.15;24.52;;;15.50;99.90;;;;;;2055998;28;20034;-68
2021/05/12 00:42:31;;;;;;;28.58;25.58;;;15.40;99.90;;;;;;2055080;28;20065;-68
2021/05/12 00:43:32;;;;;;;24.30;22.02;;;15.40;99.90;;;;;;2055106;28;20035;-68
2021/05/12 00:44:32;;;;;;;27.17;24.13;;;15.40;99.90;;;;;;2055561;28;20050;-68
2021/05/12 00:45:33;;;;;;;25.63;22.85;;;15.40;99.90;;;;;;2056097;28;20027;-68
2021/05/12 00:46:41;;;;;;;26.58;23.70;;;15.40;99.90;;;;;;2055653;28;20082;-68
2021/05/12 00:47:42;;;;;;;28.50;25.02;;;15.40;99.90;;;;;;2056070;28;20483;-68
2021/05/12 00:48:43;;;;;;;26.90;24.05;;;15.40;99.90;;;;;;2055707;28;20383;-68
2021/05/12 00:49:43;;;;;;;26.52;24.02;;;15.40;99.90;;;;;;2055954;28;20034;-68
2021/05/12 00:50:44;;;;;;;25.35;22.80;;;15.40;99.90;;;;;;2055872;28;20538;-67
2021/05/12 00:51:45;;;;;;;29.45;24.83;;;15.30;99.90;;;;;;2055837;28;20442;-68
2021/05/12 00:52:45;;;;;;;28.52;25.67;;;15.30;99.90;;;;;;2055062;28;20022;-68
2021/05/12 00:53:46;;;;;;;28.00;25.27;;;15.30;99.90;;;;;;2055749;28;20030;-68
2021/05/12 00:54:46;;;;;;;27.88;25.17;;;15.30;99.90;;;;;;2055497;28;20044;-68
2021/05/12 00:55:48;;;;;;;27.67;24.77;;;15.30;99.90;;;;;;2055843;28;20027;-68
2021/05/12 00:56:49;;;;;;;28.45;25.70;;;15.30;99.90;;;;;;2055374;28;20467;-68
2021/05/12 00:57:50;;;;;;;28.15;25.25;;;15.30;99.90;;;;;;2055629;28;20033;-68
2021/05/12 00:58:51;;;;;;;27.08;24.25;;;15.30;99.90;;;;;;2055068;28;20038;-68
2021/05/12 00:59:54;;;;;;;31.08;25.42;;;15.30;99.90;;;;;;2055167;28;20042;-68
2021/05/12 01:00:56;;;;;;;28.58;25.52;;;15.20;99.90;;;;;;2056153;28;20378;-68
2021/05/12 01:01:57;;;;;;;29.67;26.67;;;15.30;99.90;;;;;;2055563;28;20027;-68
2021/05/12 01:02:57;;;;;;;29.70;26.70;;;15.30;99.90;;;;;;2062704;23;20576;-68
2021/05/12 01:03:58;;;;;;;30.13;27.08;;;15.30;99.90;;;;;;2057072;28;20462;-68
2021/05/12 01:04:59;;;;;;;30.95;27.95;;;15.30;99.90;;;;;;2059705;28;20031;-68
2021/05/12 01:06:01;;;;;;;29.75;26.67;;;15.30;99.90;;;;;;2063592;28;20022;-68
2021/05/12 01:07:02;;;;;;;31.77;28.40;;;15.20;99.90;;;;;;2055584;28;20018;-68
2021/05/12 01:08:05;;;;;;;32.97;28.60;;;15.20;99.90;;;;;;2058766;28;20038;-68
2021/05/12 01:09:07;;;;;;;30.08;27.13;;;15.20;99.90;;;;;;2062028;28;20018;-68
2021/05/12 01:10:08;;;;;;;30.58;27.67;;;15.20;99.90;;;;;;2063638;28;20101;-68
2021/05/12 01:11:08;;;;;;;30.13;27.05;;;15.20;99.90;;;;;;2063422;28;20587;-68
2021/05/12 01:12:09;;;;;;;31.60;28.33;;;15.20;99.90;;;;;;2063068;28;20034;-68
2021/05/12 01:13:12;;;;;;;32.60;29.30;;;15.20;99.90;;;;;;2063366;28;20019;-68
2021/05/12 01:14:12;;;;;;;29.52;26.58;;;15.20;99.90;;;;;;2063428;28;20133;-68
2021/05/12 01:15:13;;;;;;;32.78;29.52;;;15.20;99.90;;;;;;2063476;28;20077;-68
2021/05/12 01:16:15;;;;;;;31.77;28.60;;;15.20;99.90;;;;;;2063107;28;20072;-68
2021/05/12 01:17:15;;;;;;;29.23;26.42;;;15.10;99.90;;;;;;2060532;28;20059;-68
2021/05/12 01:18:23;;;;;;;30.08;27.15;;;15.10;99.90;;;;;;2060653;28;20046;-68
2021/05/12 01:19:26;;;;;;;32.97;29.52;;;15.20;99.90;;;;;;2063621;28;20052;-68
2021/05/12 01:20:26;;;;;;;32.90;29.67;;;15.10;99.90;;;;;;2063721;28;20485;-69
2021/05/12 01:21:27;;;;;;;32.90;29.70;;;15.10;99.90;;;;;;2063443;28;20057;-68
2021/05/12 01:22:28;;;;;;;33.35;30.02;;;15.10;99.90;;;;;;2061398;28;20037;-68
2021/05/12 01:23:31;;;;;;;33.20;30.10;;;15.10;99.90;;;;;;2056287;28;20657;-68
2021/05/12 01:24:31;;;;;;;36.13;32.58;;;15.10;99.90;;;;;;2063252;28;20034;-68
2021/05/12 01:25:32;;;;;;;34.13;30.83;;;15.10;99.90;;;;;;2062994;28;20043;-68
2021/05/12 01:26:33;;;;;;;35.13;31.83;;;15.10;99.90;;;;;;2061333;28;20552;-68
2021/05/12 01:27:33;;;;;;;32.58;29.48;;;15.10;99.90;;;;;;2063502;28;20114;-68
2021/05/12 01:28:38;;;;;;;34.13;30.48;;;15.10;99.90;;;;;;2063617;28;20021;-68
2021/05/12 01:29:39;;;;;;;35.13;31.58;;;15.10;99.90;;;;;;2070667;28;20049;-68
2021/05/12 01:30:40;;;;;;;34.28;30.95;;;15.10;99.90;;;;;;2071249;28;20017;-68
2021/05/12 01:31:44;;;;;;;32.63;29.52;;;15.20;99.90;;;;;;2063632;28;20464;-68
2021/05/12 01:32:46;;;;;;;35.90;32.33;;;15.20;99.90;;;;;;2058444;28;20038;-68
2021/05/12 01:33:47;;;;;;;34.28;30.92;;;15.20;99.90;;;;;;2058266;28;20069;-68
2021/05/12 01:34:47;;;;;;;36.33;32.42;;;15.20;99.90;;;;;;2063513;28;20682;-68
2021/05/12 01:35:48;;;;;;;33.80;30.67;;;15.20;99.90;;;;;;2063179;28;20030;-68
2021/05/12 01:36:51;;;;;;;32.83;29.60;;;15.20;99.90;;;;;;2063671;28;20473;-68
2021/05/12 01:37:51;;;;;;;33.97;30.42;;;15.20;99.90;;;;;;2055475;28;20564;-68
2021/05/12 01:38:52;;;;;;;35.30;31.83;;;15.20;99.90;;;;;;2055683;28;20664;-68
2021/05/12 01:39:53;;;;;;;33.92;30.65;;;15.20;99.90;;;;;;2055443;28;20363;-68
2021/05/12 01:40:54;;;;;;;34.85;31.48;;;15.20;99.90;;;;;;2057136;28;20029;-68
2021/05/12 01:41:55;;;;;;;35.90;32.15;;;15.20;99.90;;;;;;2063242;28;20466;-68
2021/05/12 01:42:55;;;;;;;33.55;30.25;;;15.20;99.90;;;;;;2062959;28;20485;-68
2021/05/12 01:43:56;;;;;;;34.58;31.38;;;15.20;99.90;;;;;;2063393;28;20062;-68
2021/05/12 01:45:05;;;;;;;34.35;31.08;;;15.20;99.90;;;;;;2063243;28;20019;-68
2021/05/12 01:46:05;;;;;;;31.23;28.15;;;15.20;99.90;;;;;;2063657;28;20077;-68
2021/05/12 01:47:06;;;;;;;33.65;30.17;;;15.20;99.90;;;;;;2063608;28;20026;-68
2021/05/12 01:48:08;;;;;;;31.30;28.30;;;15.20;99.90;;;;;;2070508;28;20029;-68
2021/05/12 01:49:09;;;;;;;33.15;29.77;;;15.20;99.90;;;;;;2070804;28;20109;-68
2021/05/12 01:50:12;;;;;;;33.25;29.95;;;15.20;99.90;;;;;;2063362;28;20022;-68
2021/05/12 01:51:14;;;;;;;33.22;29.85;;;15.20;99.90;;;;;;2059970;28;20034;-68
2021/05/12 01:52:15;;;;;;;33.88;30.45;;;15.20;99.90;;;;;;2061889;28;20104;-68
2021/05/12 01:53:16;;;;;;;33.22;29.48;;;15.20;99.90;;;;;;2060475;28;20031;-68
2021/05/12 01:54:16;;;;;;;33.40;30.08;;;15.20;99.90;;;;;;2063600;28;20652;-68
2021/05/12 01:55:17;;;;;;;33.03;29.88;;;15.20;99.90;;;;;;2063075;28;20081;-68
2021/05/12 01:56:18;;;;;;;32.83;29.42;;;15.20;99.90;;;;;;2063338;28;20086;-68
2021/05/12 01:57:18;;;;;;;36.05;32.35;;;15.30;99.90;;;;;;2062948;28;20077;-68
2021/05/12 01:58:20;;;;;;;34.05;30.60;;;15.20;99.90;;;;;;2063259;28;20038;-68
2021/05/12 01:59:20;;;;;;;33.08;29.67;;;15.20;99.90;;;;;;2063535;28;20121;-68
2021/05/12 02:00:26;;;;;;;34.08;30.45;;;15.30;99.90;;;;;;2063376;28;20018;-68
2021/05/12 02:01:27;;;;;;;31.77;28.67;;;15.20;99.90;;;;;;2062187;28;20089;-68
2021/05/12 02:02:28;;;;;;;34.90;31.30;;;15.20;99.90;;;;;;2063585;28;20070;-68
2021/05/12 02:03:29;;;;;;;33.13;29.77;;;15.20;99.90;;;;;;2059726;28;20627;-68
2021/05/12 02:04:29;;;;;;;33.88;30.45;;;15.20;99.90;;;;;;2057531;28;20030;-68
2021/05/12 02:05:30;;;;;;;33.13;29.88;;;15.20;99.90;;;;;;2064752;28;20022;-68
2021/05/12 02:06:31;;;;;;;34.92;31.40;;;15.20;99.90;;;;;;2064640;28;20034;-68
2021/05/12 02:07:32;;;;;;;35.60;31.85;;;15.20;99.90;;;;;;2064669;28;20032;-68
2021/05/12 02:08:32;;;;;;;34.88;31.48;;;15.20;99.90;;;;;;2064448;28;20241;-68
2021/05/12 02:09:40;;;;;;;34.38;30.77;;;15.20;99.90;;;;;;2063993;28;20038;-68
2021/05/12 02:10:43;;;;;;;35.03;31.48;;;15.20;99.90;;;;;;2064747;28;20366;-68
2021/05/12 02:11:44;;;;;;;36.42;32.72;;;15.20;99.90;;;;;;2063928;28;20358;-68
2021/05/12 02:12:45;;;;;;;34.80;31.48;;;15.20;99.90;;;;;;2063889;28;20037;-68
2021/05/12 02:13:45;;;;;;;37.67;33.60;;;15.20;99.90;;;;;;2063913;28;20026;-68
2021/05/12 02:14:46;;;;;;;35.38;31.80;;;15.20;99.90;;;;;;2063940;28;20524;-68
2021/05/12 02:15:47;;;;;;;33.83;30.40;;;15.20;99.90;;;;;;2064612;28;20072;-68
2021/05/12 02:16:47;;;;;;;37.10;32.97;;;15.20;99.90;;;;;;2066084;28;20037;-68
2021/05/12 02:17:48;;;;;;;32.58;29.27;;;15.20;99.90;;;;;;2065974;28;20030;-68
2021/05/12 02:18:49;;;;;;;32.45;28.52;;;15.20;99.90;;;;;;2066069;28;20022;-68
2021/05/12 02:19:49;;;;;;;32.10;28.80;;;15.10;99.90;;;;;;2066056;28;20604;-68
2021/05/12 02:20:50;;;;;;;36.47;32.83;;;15.10;99.90;;;;;;2066228;28;20023;-68
2021/05/12 02:21:51;;;;;;;36.33;32.38;;;15.10;99.90;;;;;;2065575;28;20026;-69
2021/05/12 02:22:51;;;;;;;36.53;32.83;;;15.10;99.90;;;;;;2065756;28;20034;-68
2021/05/12 02:23:52;;;;;;;35.70;31.10;;;15.10;99.90;;;;;;2065880;28;20023;-68
2021/05/12 02:24:52;;;;;;;35.42;31.77;;;15.10;99.90;;;;;;2066368;28;20034;-68
2021/05/12 02:25:53;;;;;;;36.72;32.78;;;15.10;99.90;;;;;;2066127;28;20026;-68
2021/05/12 02:26:54;;;;;;;36.25;32.58;;;15.10;99.90;;;;;;2066283;28;20023;-68
2021/05/12 02:27:54;;;;;;;35.05;30.70;;;15.10;99.90;;;;;;2065627;28;20030;-68
2021/05/12 02:28:57;;;;;;;33.92;30.33;;;15.10;99.90;;;;;;2066192;28;20454;-68
2021/05/12 02:30:01;;;;;;;33.17;29.65;;;15.10;99.90;;;;;;2066186;28;20105;-68
2021/05/12 02:31:03;;;;;;;31.15;28.05;;;15.10;99.90;;;;;;2064851;28;20029;-68
2021/05/12 02:32:03;;;;;;;37.53;33.55;;;15.10;99.90;;;;;;2065814;28;20461;-68
2021/05/12 02:33:05;;;;;;;36.58;32.67;;;15.10;99.90;;;;;;2065764;28;20429;-68
2021/05/12 02:34:06;;;;;;;33.88;30.17;;;15.10;99.90;;;;;;2065959;28;20417;-68
2021/05/12 02:35:09;;;;;;;35.38;31.63;;;15.10;99.90;;;;;;2066094;28;20019;-68
2021/05/12 02:36:09;;;;;;;35.15;31.52;;;15.00;99.90;;;;;;2065962;28;20019;-68
2021/05/12 02:37:10;;;;;;;35.78;32.08;;;15.00;99.90;;;;;;2065972;28;20515;-68
2021/05/12 02:38:11;;;;;;;36.67;32.78;;;15.00;99.90;;;;;;2066053;28;20405;-68
2021/05/12 02:39:11;;;;;;;36.45;32.63;;;15.00;99.90;;;;;;2065911;28;20026;-68
2021/05/12 02:40:15;;;;;;;37.13;32.42;;;15.00;99.90;;;;;;2065990;28;20026;-69
2021/05/12 02:41:15;;;;;;;36.50;33.03;;;15.00;99.90;;;;;;2064339;28;20018;-69
2021/05/12 02:42:16;;;;;;;38.88;34.70;;;15.00;99.90;;;;;;2061960;28;20050;-69
2021/05/12 02:43:17;;;;;;;37.13;32.47;;;14.90;99.90;;;;;;2065805;28;20553;-69
2021/05/12 02:44:17;;;;;;;36.03;32.35;;;15.00;99.90;;;;;;2066069;28;20536;-68
2021/05/12 02:45:18;;;;;;;34.67;31.17;;;15.00;99.90;;;;;;2066084;28;20030;-68
2021/05/12 02:46:19;;;;;;;39.45;33.95;;;15.00;99.90;;;;;;2066333;28;20389;-68
2021/05/12 02:47:20;;;;;;;35.33;31.55;;;14.90;99.90;;;;;;2065667;28;20505;-68
2021/05/12 02:48:20;;;;;;;33.33;29.75;;;14.90;99.90;;;;;;2066122;28;20030;-68
2021/05/12 02:49:21;;;;;;;35.63;31.70;;;14.90;99.90;;;;;;2066032;28;20030;-68
2021/05/12 02:50:21;;;;;;;33.30;29.83;;;14.90;99.90;;;;;;2066013;28;20068;-68
2021/05/12 02:51:22;;;;;;;36.38;32.60;;;14.90;99.90;;;;;;2065021;28;20027;-68
2021/05/12 02:52:23;;;;;;;36.50;32.15;;;14.90;99.90;;;;;;2065774;28;20109;-68
2021/05/12 02:53:23;;;;;;;37.90;32.28;;;14.90;99.90;;;;;;2065756;28;20026;-68
2021/05/12 02:54:24;;;;;;;36.72;32.53;;;14.90;99.90;;;;;;2066022;28;20022;-68
2021/05/12 02:55:25;;;;;;;36.80;31.80;;;14.80;99.90;;;;;;2065621;28;20054;-68
2021/05/12 02:56:26;;;;;;;33.33;29.70;;;14.80;99.90;;;;;;2066192;28;20022;-68
2021/05/12 02:57:27;;;;;;;34.35;30.75;;;14.80;99.90;;;;;;2065900;28;20491;-68
2021/05/12 02:58:27;;;;;;;38.55;32.85;;;14.70;99.90;;;;;;2065829;28;20113;-68
2021/05/12 02:59:28;;;;;;;36.85;31.70;;;14.80;99.90;;;;;;2065133;28;20073;-68
2021/05/12 03:00:29;;;;;;;35.50;30.55;;;14.70;99.90;;;;;;2065391;28;20030;-68
2021/05/12 03:01:29;;;;;;;36.15;31.35;;;14.70;99.90;;;;;;2065273;28;20023;-68
2021/05/12 03:02:30;;;;;;;31.63;28.05;;;14.70;99.90;;;;;;2064192;28;20174;-68
2021/05/12 03:03:31;;;;;;;33.35;29.70;;;14.70;99.90;;;;;;2063907;28;20052;-68
2021/05/12 03:04:32;;;;;;;35.60;31.65;;;14.70;99.90;;;;;;2064903;28;20054;-68
2021/05/12 03:05:32;;;;;;;37.20;32.95;;;14.70;99.90;;;;;;2064829;28;20034;-68
2021/05/12 03:06:33;;;;;;;34.60;30.85;;;14.70;99.90;;;;;;2065042;28;20026;-68
2021/05/12 03:07:33;;;;;;;30.98;25.05;;;14.60;99.90;;;;;;2064971;28;20026;-68
2021/05/12 03:08:34;;;;;;;34.65;30.75;;;14.60;99.90;;;;;;2065078;28;20045;-68
2021/05/12 03:09:35;;;;;;;34.55;30.95;;;14.60;99.90;;;;;;2064810;28;20489;-68
2021/05/12 03:10:35;;;;;;;33.75;29.17;;;14.60;99.90;;;;;;2064819;28;20365;-68
2021/05/12 03:11:36;;;;;;;31.75;28.25;;;14.60;99.90;;;;;;2063227;28;20026;-68
2021/05/12 03:12:37;;;;;;;35.80;30.80;;;14.60;99.90;;;;;;2063895;28;20073;-68
2021/05/12 03:13:38;;;;;;;35.10;31.05;;;14.60;99.90;;;;;;2064434;28;20121;-68
2021/05/12 03:14:38;;;;;;;31.95;28.55;;;14.60;99.90;;;;;;2064516;28;20026;-68
2021/05/12 03:15:39;;;;;;;35.05;30.20;;;14.60;99.90;;;;;;2064458;28;20033;-68
2021/05/12 03:16:40;;;;;;;33.08;29.30;;;14.60;99.90;;;;;;2064744;28;20434;-68
2021/05/12 03:17:41;;;;;;;32.58;29.15;;;14.50;99.90;;;;;;2064371;28;20029;-68
2021/05/12 03:18:42;;;;;;;29.65;26.50;;;14.50;99.90;;;;;;2064595;28;20026;-68
2021/05/12 03:19:42;;;;;;;34.13;30.33;;;14.50;99.90;;;;;;2064301;28;20473;-68
2021/05/12 03:20:43;;;;;;;27.17;23.60;;;14.50;99.90;;;;;;2064680;28;20436;-68
2021/05/12 03:21:43;;;;;;;34.47;27.55;;;14.50;99.90;;;;;;2063988;28;20034;-68
2021/05/12 03:22:46;;;;;;;30.92;27.52;;;14.50;99.90;;;;;;2063726;28;20478;-68
2021/05/12 03:23:49;;;;;;;24.08;20.65;;;14.50;99.90;;;;;;2063864;28;20033;-68
2021/05/12 03:24:49;;;;;;;25.63;21.58;;;14.50;99.90;;;;;;2056335;28;20455;-68
2021/05/12 03:25:50;;;;;;;23.98;21.15;;;14.50;99.90;;;;;;2064615;28;20153;-68
2021/05/12 03:26:52;;;;;;;31.85;27.23;;;14.50;99.90;;;;;;2064472;28;20061;-68
2021/05/12 03:27:53;;;;;;;22.50;20.10;;;14.50;99.90;;;;;;2063693;28;20022;-68
2021/05/12 03:28:54;;;;;;;32.03;28.70;;;14.40;99.90;;;;;;2063777;28;20557;-68
2021/05/12 03:29:54;;;;;;;26.58;20.63;;;14.40;99.90;;;;;;2064168;28;20370;-68
2021/05/12 03:30:55;;;;;;;22.83;19.67;;;14.40;99.90;;;;;;2064353;28;20019;-68
2021/05/12 03:31:56;;;;;;;30.02;25.67;;;14.40;99.90;;;;;;2064465;28;20022;-68
2021/05/12 03:32:57;;;;;;;24.13;21.52;;;14.40;99.90;;;;;;2063341;28;20054;-68
2021/05/12 03:33:57;;;;;;;28.73;25.80;;;14.40;99.90;;;;;;2063000;28;20033;-68
2021/05/12 03:34:58;;;;;;;28.38;25.38;;;14.40;99.90;;;;;;2057725;28;20030;-68
2021/05/12 03:35:58;;;;;;;27.23;24.42;;;14.30;99.90;;;;;;2064341;28;20045;-68
2021/05/12 03:36:59;;;;;;;32.42;27.50;;;14.30;99.90;;;;;;2064334;28;20030;-68
2021/05/12 03:38:00;;;;;;;31.30;27.20;;;14.30;99.90;;;;;;2064601;28;20035;-68
2021/05/12 03:39:02;;;;;;;36.00;28.52;;;14.30;99.90;;;;;;2064265;28;20443;-68
2021/05/12 03:40:06;;;;;;;28.38;24.38;;;14.30;99.90;;;;;;2063931;28;20121;-68
2021/05/12 03:41:07;;;;;;;29.38;25.00;;;14.30;99.90;;;;;;2056174;28;20038;-68
2021/05/12 03:42:08;;;;;;;30.98;27.58;;;14.20;99.90;;;;;;2059701;28;20022;-68
2021/05/12 03:43:10;;;;;;;29.05;25.90;;;14.20;99.90;;;;;;2063533;28;20026;-68
2021/05/12 03:44:11;;;;;;;29.38;26.42;;;14.20;99.90;;;;;;2064152;28;20027;-68
2021/05/12 03:45:12;;;;;;;32.60;28.17;;;14.20;99.90;;;;;;2063964;28;20541;-68
2021/05/12 03:46:13;;;;;;;30.15;26.42;;;14.20;99.90;;;;;;2064447;28;20026;-68
2021/05/12 03:47:13;;;;;;;26.45;23.73;;;14.20;99.90;;;;;;2064269;28;20034;-68
2021/05/12 03:48:14;;;;;;;35.40;26.35;;;14.10;99.90;;;;;;2063766;28;20495;-68
2021/05/12 03:49:15;;;;;;;29.88;25.40;;;14.10;99.90;;;;;;2064056;28;20033;-68
2021/05/12 03:50:16;;;;;;;31.25;27.20;;;14.10;99.90;;;;;;2064287;28;20030;-68
2021/05/12 03:51:17;;;;;;;26.45;23.42;;;14.10;99.90;;;;;;2064261;28;20252;-68
2021/05/12 03:52:17;;;;;;;32.30;27.73;;;14.10;99.90;;;;;;2063892;28;20026;-68
2021/05/12 03:53:18;;;;;;;30.02;26.90;;;14.00;99.90;;;;;;2064013;28;20031;-68
2021/05/12 03:54:21;;;;;;;23.33;20.80;;;14.00;99.90;;;;;;2064291;28;20658;-68
2021/05/12 03:55:23;;;;;;;34.92;29.13;;;14.00;99.90;;;;;;2063926;28;20125;-68
2021/05/12 03:56:23;;;;;;;26.08;23.27;;;14.00;99.90;;;;;;2064030;28;20042;-68
2021/05/12 03:57:24;;;;;;;33.50;26.88;;;14.00;99.90;;;;;;2064252;28;20029;-68
2021/05/12 03:58:24;;;;;;;28.75;24.67;;;14.00;99.90;;;;;;2063944;28;20101;-68
2021/05/12 03:59:25;;;;;;;24.20;21.52;;;14.00;99.90;;;;;;2064325;28;20088;-68
2021/05/12 04:00:26;;;;;;;25.98;23.23;;;13.90;99.90;;;;;;2056130;28;20498;-68
2021/05/12 04:01:26;;;;;;;27.45;24.48;;;13.90;99.90;;;;;;2059015;28;20105;-68
2021/05/12 04:02:27;;;;;;;22.08;19.73;;;13.90;99.90;;;;;;2063294;28;20128;-68
2021/05/12 04:03:28;;;;;;;29.60;26.60;;;13.90;99.90;;;;;;2064061;28;20034;-68
2021/05/12 04:04:29;;;;;;;24.67;20.75;;;13.90;99.90;;;;;;2064190;28;20026;-68
2021/05/12 04:05:29;;;;;;;30.40;27.10;;;13.90;99.90;;;;;;2064045;28;20146;-68
2021/05/12 04:06:30;;;;;;;27.80;22.35;;;13.90;99.90;;;;;;2064009;28;20038;-68
2021/05/12 04:07:30;;;;;;;23.10;19.38;;;13.80;99.90;;;;;;2064192;28;20111;-68
2021/05/12 04:08:31;;;;;;;25.55;22.58;;;13.80;99.90;;;;;;2061362;28;20034;-68
2021/05/12 04:09:31;;;;;;;24.40;21.60;;;13.80;99.90;;;;;;2058960;28;20038;-68
2021/05/12 04:10:32;;;;;;;27.90;23.02;;;13.80;99.90;;;;;;2063317;28;20065;-68
2021/05/12 04:11:33;;;;;;;28.60;25.30;;;13.80;99.90;;;;;;2064162;28;20030;-68
2021/05/12 04:12:34;;;;;;;24.35;20.42;;;13.80;99.90;;;;;;2063364;28;20124;-68
2021/05/12 04:13:36;;;;;;;23.95;20.70;;;13.70;99.90;;;;;;2063977;28;20026;-68
2021/05/12 04:14:36;;;;;;;24.73;22.10;;;13.70;99.90;;;;;;2063652;28;20528;-68
2021/05/12 04:15:37;;;;;;;25.13;22.52;;;13.70;99.90;;;;;;2063482;28;20387;-68
2021/05/12 04:16:37;;;;;;;27.52;23.75;;;13.70;99.90;;;;;;2063274;28;20030;-68
2021/05/12 04:17:38;;;;;;;32.67;24.20;;;13.70;99.90;;;;;;2064093;28;20114;-68
2021/05/12 04:18:39;;;;;;;28.25;24.95;;;13.70;99.90;;;;;;2063491;28;20107;-68
2021/05/12 04:19:39;;;;;;;31.52;24.73;;;13.70;99.90;;;;;;2064084;28;20038;-68
2021/05/12 04:20:40;;;;;;;26.98;20.13;;;13.70;99.90;;;;;;2064017;28;20030;-68
2021/05/12 04:21:41;;;;;;;26.92;22.98;;;13.70;99.90;;;;;;2064158;28;20022;-68
2021/05/12 04:22:41;;;;;;;29.00;25.88;;;13.70;99.90;;;;;;2063167;28;20181;-68
2021/05/12 04:23:42;;;;;;;24.27;21.63;;;13.70;99.90;;;;;;2064171;28;20465;-68
2021/05/12 04:24:43;;;;;;;28.48;23.77;;;13.70;99.90;;;;;;2058609;28;20544;-68
2021/05/12 04:25:44;;;;;;;28.55;24.35;;;13.60;99.90;;;;;;2057907;28;20451;-68
2021/05/12 04:26:44;;;;;;;25.40;20.98;;;13.60;99.90;;;;;;2064321;28;20035;-68
2021/05/12 04:27:46;;;;;;;27.90;24.67;;;13.60;99.90;;;;;;2063860;28;20114;-68
2021/05/12 04:28:47;;;;;;;30.17;26.98;;;13.60;99.90;;;;;;2063823;28;20026;-68
2021/05/12 04:29:47;;;;;;;28.67;25.55;;;13.60;99.90;;;;;;2064217;28;20026;-68
2021/05/12 04:30:48;;;;;;;29.38;25.77;;;13.60;99.90;;;;;;2062462;28;20034;-68
2021/05/12 04:31:49;;;;;;;29.73;26.55;;;13.50;99.90;;;;;;2063996;28;20498;-68
2021/05/12 04:32:50;;;;;;;22.85;20.42;;;13.50;99.90;;;;;;2063150;28;20030;-68
2021/05/12 04:33:51;;;;;;;24.13;21.40;;;13.60;99.90;;;;;;2063946;28;20102;-68
2021/05/12 04:34:51;;;;;;;26.30;23.33;;;13.50;99.90;;;;;;2063566;28;20098;-68
2021/05/12 04:35:52;;;;;;;30.85;27.08;;;13.50;99.90;;;;;;2063726;28;20105;-68
2021/05/12 04:36:52;;;;;;;30.48;27.30;;;13.50;99.90;;;;;;2063988;28;20034;-69
2021/05/12 04:37:53;;;;;;;25.88;21.00;;;13.50;99.90;;;;;;2063666;28;20030;-68
2021/05/12 04:38:54;;;;;;;30.67;25.65;;;13.50;99.90;;;;;;2063919;28;20109;-68
2021/05/12 04:39:54;;;;;;;33.28;27.40;;;13.50;99.90;;;;;;2071290;28;20046;-68
2021/05/12 04:40:56;;;;;;;26.42;21.30;;;13.50;99.90;;;;;;2078294;28;20372;-68
2021/05/12 04:41:56;;;;;;;29.40;23.48;;;13.50;99.90;;;;;;2063985;28;20033;-68
2021/05/12 04:42:57;;;;;;;26.63;22.10;;;13.40;99.90;;;;;;2063567;28;20571;-69
2021/05/12 04:44:01;;;;;;;27.60;23.88;;;13.40;99.90;;;;;;2063580;28;20018;-68
2021/05/12 04:45:07;;;;;;;23.42;20.92;;;13.50;99.90;;;;;;2063401;28;20033;-68
2021/05/12 04:46:08;;;;;;;26.13;21.88;;;13.50;99.90;;;;;;2063540;28;20064;-68
2021/05/12 04:47:08;;;;;;;23.70;20.83;;;13.50;99.90;;;;;;2064002;28;20026;-68
2021/05/12 04:48:09;;;;;;;28.27;21.77;;;13.40;99.90;;;;;;2063699;28;20453;-68
2021/05/12 04:49:10;;;;;;;25.17;22.15;;;13.40;99.90;;;;;;2063990;28;20462;-68
2021/05/12 04:50:11;;;;;;;19.73;17.58;;;13.40;99.90;;;;;;2063870;28;20049;-68
2021/05/12 04:51:12;;;;;;;29.23;23.50;;;13.40;99.90;;;;;;2063928;28;20073;-68
2021/05/12 04:52:13;;;;;;;24.60;21.98;;;13.40;99.90;;;;;;2063155;28;20037;-68
2021/05/12 04:53:14;;;;;;;27.92;23.20;;;13.40;99.90;;;;;;2063718;28;20326;-68
2021/05/12 04:54:15;;;;;;;29.45;24.10;;;13.40;99.90;;;;;;2063309;28;21081;-68
2021/05/12 04:55:16;;;;;;;33.13;27.13;;;13.50;99.90;;;;;;2063971;28;20030;-68
2021/05/12 04:56:16;;;;;;;32.20;25.02;;;13.40;99.90;;;;;;2063447;28;20030;-68
2021/05/12 04:57:17;;;;;;;28.40;23.73;;;13.40;99.90;;;;;;2064110;28;20046;-68
2021/05/12 04:58:19;;;;;;;32.53;24.52;;;13.40;99.90;;;;;;2070928;28;20079;-68
2021/05/12 04:59:20;;;;;;;33.50;25.50;;;13.40;99.90;;;;;;2071157;28;20105;-68
2021/05/12 05:00:21;;;;;;;33.17;26.33;;;13.40;99.90;;;;;;2063298;28;20030;-69
2021/05/12 05:01:22;;;;;;;31.23;26.58;;;13.40;99.90;;;;;;2063347;28;20069;-69
2021/05/12 05:02:22;;;;;;;36.35;27.67;;;13.50;99.90;;;;;;2062935;28;20031;-68
2021/05/12 05:03:23;;;;;;;35.78;26.63;;;13.50;99.90;;;;;;2064724;28;20164;-70
2021/05/12 05:04:24;;;;;;;36.50;28.25;;;13.50;99.90;;;;;;2065139;28;20113;-68
2021/05/12 05:05:26;;;;;;;40.00;29.25;;;13.50;99.90;;;;;;2063339;28;20033;-68
2021/05/12 05:06:27;;;;;;;35.95;28.00;;;13.50;99.90;;;;;;2063022;28;20417;-68
2021/05/12 05:07:28;;;;;;;29.05;23.98;;;13.50;99.90;;;;;;2065975;28;20034;-68
2021/05/12 05:08:29;;;;;;;33.60;26.70;;;13.50;99.90;;;;;;2063490;28;20038;-68
2021/05/12 05:09:29;;;;;;;35.10;25.48;;;13.50;99.90;;;;;;2063462;28;20031;-68
2021/05/12 05:10:30;;;;;;;39.25;28.50;;;13.50;99.90;;;;;;2063564;28;20469;-68
2021/05/12 05:11:31;;;;;;;36.38;27.80;;;13.60;99.90;;;;;;2065549;28;20023;-68